createdAt,value
2023-03-10T00:00:05.889Z,6.17
2023-03-10T00:03:08.415Z,6.17
2023-03-10T00:06:13.104Z,6.09
2023-03-10T00:09:15.590Z,6.08
2023-03-10T00:12:17.800Z,6.09
2023-03-10T00:15:20.354Z,6.03
2023-03-10T00:18:22.829Z,5.91
2023-03-10T00:21:28.557Z,5.81
2023-03-10T00:24:30.994Z,5.72
2023-03-10T00:27:33.986Z,5.60
2023-03-10T00:30:36.189Z,5.54
2023-03-10T00:33:39.075Z,5.56
2023-03-10T00:36:41.282Z,5.49
2023-03-10T00:39:45.192Z,5.48
2023-03-10T00:42:47.377Z,5.43
2023-03-10T00:45:49.848Z,5.42
2023-03-10T00:48:52.460Z,5.30
2023-03-10T00:51:54.944Z,5.25
2023-03-10T00:54:57.106Z,5.21
2023-03-10T00:57:59.604Z,5.18
2023-03-10T01:01:03.403Z,5.13
2023-03-10T01:04:18.811Z,5.09
2023-03-10T01:07:21.027Z,5.11
2023-03-10T01:10:23.532Z,5.13
2023-03-10T01:13:25.706Z,5.02
2023-03-10T01:16:29.587Z,5.01
2023-03-10T01:19:31.839Z,4.98
2023-03-10T01:22:36.143Z,5.00
2023-03-10T01:25:38.276Z,4.98
2023-03-10T01:28:41.002Z,4.89
2023-03-10T01:31:43.295Z,4.87
2023-03-10T01:34:45.869Z,4.92
2023-03-10T01:37:48.038Z,4.87
2023-03-10T01:40:51.104Z,4.87
2023-03-10T01:43:56.054Z,4.74
2023-03-10T01:46:59.354Z,4.73
2023-03-10T01:50:04.078Z,4.69
2023-03-10T01:53:07.233Z,4.65
2023-03-10T01:56:09.436Z,4.60
2023-03-10T01:59:12.712Z,4.57
2023-03-10T02:02:14.915Z,4.53
2023-03-10T02:05:17.744Z,4.50
2023-03-10T02:08:21.919Z,4.61
2023-03-10T02:11:24.674Z,4.58
2023-03-10T02:14:27.387Z,4.54
2023-03-10T02:17:30.660Z,4.57
2023-03-10T02:21:11.423Z,4.56
2023-03-10T02:24:41.899Z,4.54
2023-03-10T02:27:44.470Z,4.51
2023-03-10T02:30:50.352Z,4.50
2023-03-10T02:33:53.170Z,4.43
2023-03-10T02:36:55.633Z,4.38
2023-03-10T02:39:58.851Z,4.30
2023-03-10T02:43:07.699Z,4.27
2023-03-10T02:46:10.665Z,4.36
2023-03-10T02:49:13.588Z,4.36
2023-03-10T02:52:28.360Z,4.24
2023-03-10T02:55:30.597Z,4.17
2023-03-10T02:58:33.596Z,4.25
2023-03-10T03:01:36.803Z,4.18
2023-03-10T03:04:41.026Z,4.18
2023-03-10T03:07:43.296Z,4.16
2023-03-10T03:10:45.885Z,4.10
2023-03-10T03:13:48.175Z,4.07
2023-03-10T03:16:50.922Z,4.05
2023-03-10T03:19:53.696Z,4.05
2023-03-10T03:22:57.505Z,4.08
2023-03-10T03:26:00.303Z,4.12
2023-03-10T03:29:02.819Z,4.15
2023-03-10T03:32:05.936Z,3.96
2023-03-10T03:35:15.875Z,4.00
2023-03-10T03:38:18.425Z,4.09
2023-03-10T03:41:21.473Z,3.98
2023-03-10T03:44:23.787Z,3.98
2023-03-10T03:47:26.620Z,4.04
2023-03-10T03:50:28.857Z,3.98
2023-03-10T03:53:33.667Z,3.92
2023-03-10T03:56:36.019Z,3.88
2023-03-10T03:59:38.504Z,3.89
2023-03-10T04:02:41.086Z,3.91
2023-03-10T04:05:44.934Z,3.88
2023-03-10T04:08:50.266Z,3.95
2023-03-10T04:11:53.286Z,3.96
2023-03-10T04:14:55.831Z,4.00
2023-03-10T04:17:58.844Z,4.05
2023-03-10T04:21:01.872Z,4.03
2023-03-10T04:24:06.448Z,4.12
2023-03-10T04:27:09.670Z,4.20
2023-03-10T04:30:14.560Z,4.12
2023-03-10T04:33:17.860Z,4.15
2023-03-10T04:36:21.426Z,4.07
2023-03-10T04:39:24.192Z,4.00
2023-03-10T04:42:27.995Z,3.97
2023-03-10T04:45:30.590Z,4.04
2023-03-10T04:48:33.743Z,4.12
2023-03-10T04:51:36.482Z,4.19
2023-03-10T04:54:39.035Z,4.19
2023-03-10T04:57:41.290Z,4.24
2023-03-10T05:01:00.359Z,4.28
2023-03-10T05:04:06.127Z,4.31
2023-03-10T05:07:08.944Z,4.27
2023-03-10T05:10:12.311Z,4.26
2023-03-10T05:13:15.011Z,4.29
2023-03-10T05:16:20.547Z,4.35
2023-03-10T05:19:23.625Z,4.37
2023-03-10T05:22:26.651Z,4.44
2023-03-10T05:25:30.310Z,4.43
2023-03-10T05:28:32.648Z,4.45
2023-03-10T05:31:36.091Z,4.50
2023-03-10T05:34:38.790Z,4.53
2023-03-10T05:37:43.814Z,4.64
2023-03-10T05:40:46.404Z,4.78
2023-03-10T05:43:49.130Z,4.94
2023-03-10T05:46:52.592Z,5.21
2023-03-10T05:49:56.500Z,5.79
2023-03-10T05:53:00.026Z,6.51
2023-03-10T05:56:14.299Z,7.82
2023-03-10T05:59:18.021Z,8.42
2023-03-10T06:02:21.088Z,8.85
2023-03-10T06:05:23.561Z,10.67
2023-03-10T06:08:28.112Z,12.63
2023-03-10T06:11:30.795Z,14.22
2023-03-10T06:14:32.999Z,15.26
2023-03-10T06:17:35.516Z,14.78
2023-03-10T06:20:39.358Z,14.87
2023-03-10T06:23:41.816Z,16.02
2023-03-10T06:26:43.973Z,16.20
2023-03-10T06:29:49.442Z,14.31
2023-03-10T06:32:52.396Z,14.91
2023-03-10T06:35:55.178Z,15.86
2023-03-10T06:38:57.970Z,16.92
2023-03-10T06:42:01.191Z,17.53
2023-03-10T06:45:04.160Z,19.05
2023-03-10T06:48:06.662Z,19.21
2023-03-10T06:51:11.482Z,17.04
2023-03-10T06:54:14.445Z,15.48
2023-03-10T06:57:18.753Z,14.62
2023-03-10T07:00:23.212Z,12.90
2023-03-10T07:03:26.385Z,13.49
2023-03-10T07:06:29.099Z,14.02
2023-03-10T07:09:31.479Z,14.76
2023-03-10T07:12:33.968Z,14.22
2023-03-10T07:15:39.478Z,12.92
2023-03-10T07:18:42.595Z,11.96
2023-03-10T07:21:44.760Z,10.21
2023-03-10T07:24:47.298Z,10.38
2023-03-10T07:27:49.637Z,9.68
2023-03-10T07:30:52.423Z,9.36
2023-03-10T07:33:54.644Z,9.79
2023-03-10T07:36:57.145Z,9.33
2023-03-10T07:39:59.357Z,9.78
2023-03-10T07:43:01.917Z,9.63
2023-03-10T07:46:10.276Z,9.89
2023-03-10T07:49:12.940Z,10.02
2023-03-10T07:52:18.254Z,10.10
2023-03-10T07:55:21.596Z,10.48
2023-03-10T07:58:24.633Z,10.15
2023-03-10T08:01:27.223Z,10.23
2023-03-10T08:04:30.458Z,10.38
2023-03-10T08:07:32.720Z,10.95
2023-03-10T08:10:35.585Z,11.41
2023-03-10T08:13:39.062Z,11.43
2023-03-10T08:16:42.068Z,11.56
2023-03-10T08:19:45.772Z,12.03
2023-03-10T08:22:48.192Z,11.91
2023-03-10T08:25:50.503Z,12.05
2023-03-10T08:28:52.977Z,11.89
2023-03-10T08:31:55.173Z,11.15
2023-03-10T08:34:57.640Z,11.35
2023-03-10T08:38:00.003Z,11.59
2023-03-10T08:41:14.275Z,11.86
2023-03-10T08:44:18.002Z,12.21
2023-03-10T08:47:20.668Z,12.41
2023-03-10T08:50:22.955Z,13.17
2023-03-10T08:53:25.660Z,13.52
2023-03-10T08:56:28.537Z,13.48
2023-03-10T08:59:30.991Z,13.45
2023-03-10T09:02:33.849Z,13.18
2023-03-10T09:05:36.680Z,13.22
2023-03-10T09:08:39.773Z,13.67
2023-03-10T09:11:43.043Z,13.86
2023-03-10T09:14:46.339Z,14.07
2023-03-10T09:17:48.718Z,14.23
2023-03-10T09:20:51.368Z,14.28
2023-03-10T09:23:54.144Z,14.61
2023-03-10T09:26:56.509Z,14.67
2023-03-10T09:30:01.156Z,14.49
2023-03-10T09:33:05.669Z,14.42
2023-03-10T09:36:08.678Z,14.37
2023-03-10T09:39:10.914Z,14.70
2023-03-10T09:42:18.900Z,14.39
2023-03-10T09:45:32.044Z,14.15
2023-03-10T09:48:53.200Z,14.64
2023-03-10T09:51:56.000Z,14.86
2023-03-10T09:55:19.498Z,15.50
2023-03-10T09:58:32.467Z,16.20
2023-03-10T10:01:35.673Z,16.49
2023-03-10T10:04:41.683Z,16.36
2023-03-10T10:07:53.314Z,16.21
2023-03-10T10:10:58.776Z,15.77
2023-03-10T10:14:29.907Z,15.96
2023-03-10T10:18:02.890Z,16.41
2023-03-10T10:21:21.349Z,17.02
2023-03-10T10:24:25.038Z,17.17
2023-03-10T10:27:31.883Z,17.48
2023-03-10T10:30:40.265Z,18.18
2023-03-10T10:34:02.484Z,19.52
2023-03-10T10:37:27.601Z,20.76
2023-03-10T10:40:34.884Z,19.80
2023-03-10T10:43:45.413Z,18.62
2023-03-10T10:46:56.548Z,18.06
2023-03-10T10:50:25.641Z,16.87
2023-03-10T10:53:34.239Z,17.48
2023-03-10T10:56:36.901Z,17.40
2023-03-10T10:59:42.010Z,17.46
2023-03-10T11:02:45.439Z,17.46
2023-03-10T11:05:47.668Z,17.05
2023-03-10T11:08:51.505Z,18.56
2023-03-10T11:12:06.091Z,19.05
2023-03-10T11:15:20.269Z,18.91
2023-03-10T11:18:34.530Z,18.99
2023-03-10T11:21:44.888Z,18.51
2023-03-10T11:25:04.687Z,17.68
2023-03-10T11:28:19.227Z,17.99
2023-03-10T11:31:48.735Z,17.82
2023-03-10T11:34:55.690Z,17.75
2023-03-10T11:38:23.964Z,17.96
2023-03-10T11:41:33.000Z,17.66
2023-03-10T11:44:48.447Z,19.31
2023-03-10T11:48:19.532Z,20.28
2023-03-10T11:51:50.585Z,23.65
2023-03-10T11:55:07.015Z,21.32
2023-03-10T11:58:24.485Z,20.66
2023-03-10T12:01:38.322Z,19.24
2023-03-10T12:04:45.156Z,20.93
2023-03-10T12:07:51.305Z,22.59
2023-03-10T12:10:54.468Z,21.54
2023-03-10T12:14:01.048Z,22.71
2023-03-10T12:17:05.435Z,22.69
2023-03-10T12:20:12.930Z,23.30
2023-03-10T12:23:24.832Z,22.66
2023-03-10T12:26:39.294Z,23.80
2023-03-10T12:29:43.717Z,24.00
2023-03-10T12:32:47.823Z,21.78
2023-03-10T12:35:54.116Z,23.11
2023-03-10T12:39:00.923Z,22.33
2023-03-10T12:42:26.265Z,22.18
2023-03-10T12:45:32.306Z,20.94
2023-03-10T12:48:39.819Z,20.83
2023-03-10T12:51:48.269Z,19.31
2023-03-10T12:55:18.006Z,21.24
2023-03-10T12:58:25.318Z,22.39
2023-03-10T13:01:35.159Z,22.07
2023-03-10T13:04:41.368Z,22.38
2023-03-10T13:07:49.542Z,22.14
2023-03-10T13:10:56.325Z,22.74
2023-03-10T13:14:03.164Z,21.82
2023-03-10T13:17:06.460Z,21.51
2023-03-10T13:20:15.510Z,22.44
2023-03-10T13:23:24.589Z,22.66
2023-03-10T13:26:27.843Z,21.48
2023-03-10T13:29:30.066Z,20.63
2023-03-10T13:32:38.170Z,22.59
2023-03-10T13:35:42.767Z,21.60
2023-03-10T13:38:45.690Z,21.13
2023-03-10T13:41:50.888Z,21.84
2023-03-10T13:44:55.714Z,19.86
2023-03-10T13:48:00.755Z,18.16
2023-03-10T13:51:05.681Z,18.75
2023-03-10T13:54:19.480Z,19.70
2023-03-10T13:57:31.465Z,19.90
2023-03-10T14:00:37.467Z,18.59
2023-03-10T14:03:52.347Z,17.18
2023-03-10T14:07:13.914Z,17.16
2023-03-10T14:10:19.934Z,16.63
2023-03-10T14:13:41.807Z,16.38
2023-03-10T14:16:48.546Z,16.38
2023-03-10T14:19:51.012Z,16.23
2023-03-10T14:22:53.689Z,16.07
2023-03-10T14:25:57.599Z,16.22
2023-03-10T14:29:01.901Z,16.15
2023-03-10T14:32:04.360Z,16.05
2023-03-10T14:35:12.018Z,16.04
2023-03-10T14:38:14.393Z,15.79
2023-03-10T14:41:21.800Z,15.74
2023-03-10T14:44:24.019Z,15.79
2023-03-10T14:47:26.771Z,15.73
2023-03-10T14:50:29.696Z,15.51
2023-03-10T14:53:33.393Z,15.44
2023-03-10T14:56:35.538Z,15.42
2023-03-10T14:59:39.530Z,15.44
2023-03-10T15:02:41.756Z,15.26
2023-03-10T15:05:48.654Z,15.22
2023-03-10T15:08:51.449Z,15.18
2023-03-10T15:11:55.374Z,15.15
2023-03-10T15:14:57.702Z,15.08
2023-03-10T15:18:00.143Z,15.04
2023-03-10T15:21:03.385Z,15.01
2023-03-10T15:24:07.587Z,14.88
2023-03-10T15:27:12.567Z,14.80
2023-03-10T15:30:23.963Z,14.70
2023-03-10T15:33:26.491Z,14.64
2023-03-10T15:36:31.900Z,14.54
2023-03-10T15:39:36.902Z,14.45
2023-03-10T15:42:41.372Z,14.33
2023-03-10T15:45:50.238Z,14.21
2023-03-10T15:48:52.870Z,14.16
2023-03-10T15:51:55.091Z,14.09
2023-03-10T15:54:57.591Z,14.06
2023-03-10T15:57:59.840Z,13.96
2023-03-10T16:01:11.075Z,13.85
2023-03-10T16:04:13.687Z,13.81
2023-03-10T16:07:15.900Z,13.80
2023-03-10T16:10:20.457Z,13.82
2023-03-10T16:13:23.878Z,13.79
2023-03-10T16:16:26.740Z,13.74
2023-03-10T16:19:29.113Z,13.68
2023-03-10T16:22:31.659Z,13.61
2023-03-10T16:25:34.023Z,13.54
2023-03-10T16:28:39.499Z,13.50
2023-03-10T16:31:42.991Z,13.43
2023-03-10T16:34:45.668Z,13.35
2023-03-10T16:37:47.853Z,13.26
2023-03-10T16:40:50.993Z,13.14
2023-03-10T16:43:54.637Z,13.06
2023-03-10T16:46:57.235Z,12.86
2023-03-10T16:49:59.436Z,12.89
2023-03-10T16:53:01.938Z,12.76
2023-03-10T16:56:04.778Z,12.65
2023-03-10T16:59:07.615Z,12.61
2023-03-10T17:02:15.320Z,12.54
2023-03-10T17:05:18.042Z,12.51
2023-03-10T17:08:21.347Z,12.46
2023-03-10T17:11:25.235Z,12.45
2023-03-10T17:14:27.393Z,12.45
2023-03-10T17:17:32.384Z,12.51
2023-03-10T17:20:34.804Z,12.51
2023-03-10T17:23:37.388Z,12.52
2023-03-10T17:26:40.116Z,12.51
2023-03-10T17:29:42.625Z,12.45
2023-03-10T17:32:48.074Z,12.43
2023-03-10T17:35:50.660Z,12.40
2023-03-10T17:38:54.654Z,12.34
2023-03-10T17:41:57.491Z,12.35
2023-03-10T17:44:59.926Z,12.36
2023-03-10T17:48:02.445Z,12.39
2023-03-10T17:51:05.384Z,12.39
2023-03-10T17:54:07.914Z,12.48
2023-03-10T17:57:10.109Z,12.45
2023-03-10T18:00:13.342Z,12.42
2023-03-10T18:03:16.708Z,12.41
2023-03-10T18:06:22.660Z,12.36
2023-03-10T18:09:25.159Z,12.33
2023-03-10T18:12:27.311Z,12.32
2023-03-10T18:15:29.767Z,12.31
2023-03-10T18:18:34.572Z,12.23
2023-03-10T18:21:37.145Z,12.17
2023-03-10T18:24:39.304Z,12.15
2023-03-10T18:27:41.977Z,12.14
2023-03-10T18:30:46.303Z,12.18
2023-03-10T18:33:49.347Z,12.30
2023-03-10T18:36:51.888Z,12.33
2023-03-10T18:39:54.376Z,12.17
2023-03-10T18:42:57.100Z,11.28
2023-03-10T18:46:00.307Z,10.89
2023-03-10T18:49:02.668Z,10.72
2023-03-10T18:52:05.212Z,10.53
2023-03-10T18:55:07.986Z,10.67
2023-03-10T18:58:10.724Z,10.50
2023-03-10T19:01:14.958Z,10.42
2023-03-10T19:04:17.562Z,10.51
2023-03-10T19:07:20.471Z,10.42
2023-03-10T19:10:22.983Z,10.39
2023-03-10T19:13:27.393Z,10.36
2023-03-10T19:16:30.032Z,10.35
2023-03-10T19:19:32.227Z,10.35
2023-03-10T19:22:36.117Z,10.35
2023-03-10T19:25:38.389Z,10.36
2023-03-10T19:28:40.943Z,10.36
2023-03-10T19:31:43.183Z,10.30
2023-03-10T19:34:46.371Z,10.30
2023-03-10T19:37:48.768Z,10.26
2023-03-10T19:40:51.245Z,10.12
2023-03-10T19:43:54.623Z,10.38
2023-03-10T19:46:57.155Z,10.40
2023-03-10T19:50:00.691Z,10.28
2023-03-10T19:53:03.237Z,10.02
2023-03-10T19:56:07.640Z,9.94
2023-03-10T19:59:10.239Z,9.96
2023-03-10T20:02:14.632Z,9.96
2023-03-10T20:05:17.240Z,9.95
2023-03-10T20:08:19.377Z,9.96
2023-03-10T20:11:22.262Z,10.02
2023-03-10T20:14:25.868Z,10.02
2023-03-10T20:17:28.391Z,10.02
2023-03-10T20:20:31.416Z,10.00
2023-03-10T20:23:34.992Z,9.87
2023-03-10T20:26:37.339Z,9.81
2023-03-10T20:29:39.931Z,9.78
2023-03-10T20:32:43.083Z,9.75
2023-03-10T20:35:45.980Z,9.73
2023-03-10T20:38:48.441Z,9.71
2023-03-10T20:41:51.083Z,9.62
2023-03-10T20:44:53.246Z,9.56
2023-03-10T20:47:56.308Z,9.53
2023-03-10T20:50:59.055Z,9.49
2023-03-10T20:54:01.644Z,9.48
2023-03-10T20:57:03.892Z,9.54
2023-03-10T21:00:07.658Z,9.39
2023-03-10T21:03:09.824Z,9.38
2023-03-10T21:06:12.268Z,9.43
2023-03-10T21:09:14.712Z,9.45
2023-03-10T21:12:18.679Z,9.46
2023-03-10T21:15:20.909Z,9.46
2023-03-10T21:18:23.247Z,9.44
2023-03-10T21:21:25.365Z,9.35
2023-03-10T21:24:27.842Z,9.33
2023-03-10T21:27:31.397Z,9.36
2023-03-10T21:30:34.194Z,9.32
2023-03-10T21:33:36.849Z,9.27
2023-03-10T21:36:39.351Z,9.23
2023-03-10T21:39:41.819Z,9.20
2023-03-10T21:42:44.202Z,9.16
2023-03-10T21:45:46.639Z,9.15
2023-03-10T21:48:48.878Z,9.12
2023-03-10T21:51:51.564Z,9.07
2023-03-10T21:54:53.743Z,9.01
2023-03-10T21:57:56.190Z,8.95
2023-03-10T22:00:58.386Z,8.92
2023-03-10T22:04:00.905Z,9.01
2023-03-10T22:07:03.042Z,8.87
2023-03-10T22:10:07.456Z,8.87
2023-03-10T22:13:09.656Z,8.83
2023-03-10T22:16:16.099Z,8.87
2023-03-10T22:19:18.350Z,8.90
2023-03-10T22:22:22.217Z,8.82
2023-03-10T22:25:24.557Z,8.86
2023-03-10T22:28:27.012Z,8.93
2023-03-10T22:31:29.227Z,9.01
2023-03-10T22:34:31.690Z,8.91
2023-03-10T22:37:33.858Z,8.96
2023-03-10T22:40:36.318Z,9.12
2023-03-10T22:43:38.560Z,9.46
2023-03-10T22:46:45.581Z,9.54
2023-03-10T22:49:47.844Z,9.77
2023-03-10T22:52:50.302Z,9.85
2023-03-10T22:55:52.592Z,9.91
2023-03-10T22:58:55.616Z,10.10
2023-03-10T23:01:57.812Z,10.15
2023-03-10T23:05:00.247Z,10.18
2023-03-10T23:08:02.440Z,10.16
2023-03-10T23:11:12.406Z,10.17
2023-03-10T23:14:14.919Z,10.17
2023-03-10T23:17:17.468Z,10.22
2023-03-10T23:20:19.758Z,10.16
2023-03-10T23:23:22.177Z,10.09
2023-03-10T23:26:24.412Z,10.02
2023-03-10T23:29:26.895Z,10.10
2023-03-10T23:32:29.101Z,10.05
2023-03-10T23:35:32.823Z,9.98
2023-03-10T23:38:35.936Z,9.92
2023-03-10T23:41:38.381Z,9.89
2023-03-10T23:44:40.537Z,9.89
2023-03-10T23:47:43.812Z,9.79
2023-03-10T23:50:47.956Z,9.74
2023-03-10T23:53:50.404Z,9.74
2023-03-10T23:56:52.579Z,9.63
2023-03-10T23:59:55.030Z,9.48
